createdAt,value
2023-03-06T00:02:27.307Z,18.27
2023-03-06T00:07:29.039Z,19.57
2023-03-06T00:12:30.937Z,19.57
2023-03-06T00:17:32.606Z,20.43
2023-03-06T00:22:34.652Z,20.53
2023-03-06T00:27:36.349Z,17.27
2023-03-06T00:32:38.174Z,19.33
2023-03-06T00:37:40.163Z,18.07
2023-03-06T00:42:42.234Z,19.67
2023-03-06T00:47:44.097Z,19.33
2023-03-06T00:52:45.984Z,20.93
2023-03-06T00:57:47.927Z,28.17
2023-03-06T01:02:49.709Z,27.73
2023-03-06T01:07:51.383Z,30.07
2023-03-06T01:12:53.669Z,25.70
2023-03-06T01:17:55.578Z,28.43
2023-03-06T01:22:57.354Z,25.87
2023-03-06T01:27:59.109Z,28.60
2023-03-06T01:33:00.818Z,28.27
2023-03-06T01:38:02.493Z,28.63
2023-03-06T01:43:12.795Z,27.10
2023-03-06T01:48:14.533Z,28.77
2023-03-06T01:53:16.826Z,24.60
2023-03-06T01:58:19.625Z,27.77
2023-03-06T02:03:25.275Z,30.47
2023-03-06T02:08:27.870Z,26.83
2023-03-06T02:13:30.298Z,29.47
2023-03-06T02:18:33.480Z,27.63
2023-03-06T02:23:48.318Z,28.80
2023-03-06T02:28:50.142Z,29.00
2023-03-06T02:34:07.325Z,29.17
2023-03-06T02:39:09.056Z,27.70
2023-03-06T02:44:10.773Z,32.57
2023-03-06T02:49:12.483Z,29.13
2023-03-06T02:54:14.251Z,27.57
2023-03-06T02:59:15.951Z,31.93
2023-03-06T03:04:17.651Z,27.17
2023-03-06T03:09:19.369Z,29.33
2023-03-06T03:14:21.126Z,31.53
2023-03-06T03:19:22.811Z,31.43
2023-03-06T03:24:27.340Z,31.47
2023-03-06T03:29:29.043Z,36.27
2023-03-06T03:34:30.769Z,32.23
2023-03-06T03:39:32.637Z,29.90
2023-03-06T03:44:34.396Z,31.20
2023-03-06T03:49:36.052Z,34.30
2023-03-06T03:54:37.725Z,34.93
2023-03-06T03:59:39.757Z,35.13
2023-03-06T04:04:41.569Z,33.90
2023-03-06T04:09:43.328Z,35.40
2023-03-06T04:14:45.054Z,32.80
2023-03-06T04:19:46.726Z,35.30
2023-03-06T04:24:49.983Z,37.13
2023-03-06T04:29:51.790Z,36.10
2023-03-06T04:34:53.546Z,40.93
2023-03-06T04:39:55.384Z,41.33
2023-03-06T04:44:57.074Z,37.73
2023-03-06T04:49:58.785Z,35.30
2023-03-06T04:55:00.831Z,33.90
2023-03-06T05:00:05.934Z,35.90
2023-03-06T05:05:07.890Z,34.37
2023-03-06T05:10:15.141Z,38.67
2023-03-06T05:15:17.293Z,34.87
2023-03-06T05:20:19.146Z,36.10
2023-03-06T05:25:21.119Z,37.63
2023-03-06T05:30:23.352Z,34.97
2023-03-06T05:35:25.314Z,37.73
2023-03-06T05:40:27.075Z,36.30
2023-03-06T05:45:28.849Z,40.97
2023-03-06T05:50:30.543Z,46.63
2023-03-06T05:55:32.244Z,38.47
2023-03-06T06:00:33.988Z,35.83
2023-03-06T06:05:39.518Z,47.90
2023-03-06T06:10:41.309Z,51.03
2023-03-06T06:15:43.061Z,45.23
2023-03-06T06:20:45.035Z,50.53
2023-03-06T06:25:46.807Z,61.27
2023-03-06T06:30:48.485Z,48.93
2023-03-06T06:35:51.162Z,43.90
2023-03-06T06:41:26.860Z,43.93
2023-03-06T06:46:41.865Z,45.10
2023-03-06T06:51:37.368Z,40.07
2023-03-06T06:56:39.241Z,37.37
2023-03-06T07:01:41.100Z,40.47
2023-03-06T07:06:43.191Z,40.83
2023-03-06T07:11:44.949Z,38.60
2023-03-06T07:16:46.662Z,37.10
2023-03-06T07:21:48.409Z,35.50
2023-03-06T07:26:50.086Z,38.63
2023-03-06T07:31:52.496Z,32.43
2023-03-06T07:36:54.224Z,33.20
2023-03-06T07:41:57.899Z,32.03
2023-03-06T07:46:59.672Z,32.00
2023-03-06T07:52:01.539Z,33.07
2023-03-06T07:57:04.099Z,31.43
2023-03-06T08:02:05.891Z,33.80
2023-03-06T08:07:07.621Z,32.80
2023-03-06T08:12:09.400Z,34.60
2023-03-06T08:17:11.107Z,35.37
2023-03-06T08:22:13.990Z,34.37
2023-03-06T08:27:15.714Z,32.63
2023-03-06T08:32:17.541Z,32.43
2023-03-06T08:37:19.443Z,32.80
2023-03-06T08:42:21.126Z,32.63
2023-03-06T08:47:22.794Z,34.97
2023-03-06T08:52:24.606Z,32.93
2023-03-06T08:57:26.290Z,31.60
2023-03-06T09:02:28.081Z,34.53
2023-03-06T09:07:30.251Z,33.33
2023-03-06T09:12:37.365Z,33.97
2023-03-06T09:17:49.214Z,33.83
2023-03-06T09:22:50.938Z,29.67
2023-03-06T09:28:08.622Z,30.13
2023-03-06T09:33:12.522Z,28.40
2023-03-06T09:38:14.214Z,29.90
2023-03-06T09:43:23.009Z,31.07
2023-03-06T09:49:02.636Z,29.73
2023-03-06T09:54:15.286Z,26.63
2023-03-06T09:59:21.745Z,24.67
2023-03-06T10:04:43.592Z,26.97
2023-03-06T10:09:57.106Z,25.37
2023-03-06T10:15:17.434Z,25.10
2023-03-06T10:20:24.485Z,27.97
2023-03-06T10:25:29.506Z,22.77
2023-03-06T10:30:51.063Z,28.10
2023-03-06T10:35:55.102Z,24.00
2023-03-06T10:41:10.417Z,26.90
2023-03-06T10:46:25.864Z,28.70
2023-03-06T10:51:29.336Z,26.63
2023-03-06T10:56:31.027Z,28.53
2023-03-06T11:01:33.193Z,25.47
2023-03-06T11:06:35.647Z,29.53
2023-03-06T11:11:38.200Z,24.10
2023-03-06T11:16:40.060Z,23.63
2023-03-06T11:21:41.833Z,27.17
2023-03-06T11:27:03.283Z,29.67
2023-03-06T11:32:11.288Z,26.00
2023-03-06T11:37:37.495Z,24.40
2023-03-06T11:42:43.116Z,24.47
2023-03-06T11:48:05.275Z,19.57
2023-03-06T11:53:13.225Z,22.50
2023-03-06T11:58:30.208Z,18.57
2023-03-06T12:03:44.050Z,19.93
2023-03-06T12:08:45.696Z,19.30
2023-03-06T12:19:28.188Z,19.00
2023-03-06T12:25:00.389Z,16.50
2023-03-06T12:30:40.235Z,16.20
2023-03-06T12:36:05.613Z,19.80
2023-03-06T12:41:28.373Z,15.37
2023-03-06T12:46:39.685Z,15.63
2023-03-06T12:51:43.504Z,19.83
2023-03-06T12:56:47.416Z,16.57
2023-03-06T13:02:18.782Z,19.07
2023-03-06T13:07:29.695Z,18.40
2023-03-06T13:12:40.060Z,19.27
2023-03-06T13:17:41.898Z,19.97
2023-03-06T13:22:45.984Z,17.57
2023-03-06T13:28:04.125Z,19.63
2023-03-06T13:33:27.509Z,17.03
2023-03-06T13:38:30.328Z,18.87
2023-03-06T13:43:43.503Z,18.20
2023-03-06T13:49:02.498Z,17.33
2023-03-06T13:54:50.904Z,19.40
2023-03-06T14:00:22.730Z,19.33
2023-03-06T14:05:34.750Z,19.33
2023-03-06T14:10:39.237Z,19.17
2023-03-06T14:15:48.058Z,18.43
2023-03-06T14:20:54.557Z,16.80
2023-03-06T14:26:08.440Z,17.97
2023-03-06T14:31:36.004Z,18.67
2023-03-06T14:36:50.281Z,20.77
2023-03-06T14:41:52.047Z,16.53
2023-03-06T14:46:56.403Z,18.53
2023-03-06T14:52:02.025Z,17.13
2023-03-06T14:57:13.435Z,18.57
2023-03-06T15:02:28.055Z,17.87
2023-03-06T15:07:32.494Z,18.90
2023-03-06T15:12:35.833Z,17.13
2023-03-06T15:17:48.190Z,17.43
2023-03-06T15:22:50.754Z,21.57
2023-03-06T15:27:57.866Z,19.77
2023-03-06T15:33:10.695Z,24.90
2023-03-06T15:38:31.551Z,19.63
2023-03-06T15:43:42.178Z,20.70
2023-03-06T15:48:55.221Z,20.10
2023-03-06T15:54:09.910Z,20.03
2023-03-06T15:59:24.684Z,20.03
2023-03-06T16:04:26.471Z,21.73
2023-03-06T16:09:28.159Z,23.93
2023-03-06T16:14:30.073Z,21.30
2023-03-06T16:19:31.808Z,19.43
2023-03-06T16:24:33.531Z,20.60
2023-03-06T16:29:35.607Z,21.00
2023-03-06T16:34:37.346Z,19.80
2023-03-06T16:39:39.117Z,19.57
2023-03-06T16:44:40.841Z,17.93
2023-03-06T16:49:42.646Z,19.43
2023-03-06T16:54:44.798Z,20.90
2023-03-06T16:59:46.812Z,18.53
2023-03-06T17:04:48.541Z,18.87
2023-03-06T17:09:50.611Z,22.27
2023-03-06T17:14:52.961Z,21.93
2023-03-06T17:19:54.727Z,21.17
2023-03-06T17:24:56.451Z,20.00
2023-03-06T17:29:58.514Z,21.63
2023-03-06T17:35:00.396Z,21.53
2023-03-06T17:40:02.152Z,19.17
2023-03-06T17:45:05.055Z,19.67
2023-03-06T17:50:07.018Z,19.40
2023-03-06T17:55:09.183Z,19.73
2023-03-06T18:00:11.586Z,21.37
2023-03-06T18:05:13.559Z,22.80
2023-03-06T18:10:15.499Z,19.67
2023-03-06T18:15:17.572Z,23.77
2023-03-06T18:20:19.334Z,24.93
2023-03-06T18:25:21.178Z,24.47
2023-03-06T18:30:23.064Z,22.30
2023-03-06T18:35:24.854Z,24.17
2023-03-06T18:40:26.905Z,23.97
2023-03-06T18:45:28.610Z,21.73
2023-03-06T18:50:30.305Z,21.97
2023-03-06T18:55:32.548Z,23.47
2023-03-06T19:00:34.280Z,20.40
2023-03-06T19:05:40.885Z,21.47
2023-03-06T19:10:46.091Z,24.03
2023-03-06T19:15:49.172Z,22.40
2023-03-06T19:20:51.011Z,23.37
2023-03-06T19:25:59.600Z,23.23
2023-03-06T19:31:11.369Z,21.00
2023-03-06T19:36:14.418Z,24.77
2023-03-06T19:41:16.363Z,22.83
2023-03-06T19:46:18.898Z,21.33
2023-03-06T19:51:20.799Z,23.53
2023-03-06T19:56:26.145Z,21.60
2023-03-06T20:01:28.402Z,22.43
2023-03-06T20:06:33.720Z,22.33
2023-03-06T20:11:36.203Z,20.80
2023-03-06T20:16:38.523Z,22.70
2023-03-06T20:21:40.362Z,24.53
2023-03-06T20:26:42.975Z,21.53
2023-03-06T20:31:45.028Z,23.23
2023-03-06T20:36:46.973Z,21.27
2023-03-06T20:41:49.004Z,22.73
2023-03-06T20:46:52.037Z,23.03
2023-03-06T20:51:54.081Z,26.37
2023-03-06T20:56:55.909Z,25.07
2023-03-06T21:01:57.963Z,24.70
2023-03-06T21:06:59.791Z,22.20
2023-03-06T21:12:01.594Z,24.03
2023-03-06T21:17:03.604Z,19.77
2023-03-06T21:22:05.301Z,23.27
2023-03-06T21:27:07.061Z,25.77
2023-03-06T21:32:08.829Z,22.90
2023-03-06T21:37:10.647Z,24.37
2023-03-06T21:42:12.388Z,22.00
2023-03-06T21:47:14.067Z,23.77
2023-03-06T21:52:15.906Z,24.07
2023-03-06T21:57:17.631Z,22.30
2023-03-06T22:02:19.535Z,23.90
2023-03-06T22:07:21.633Z,21.17
2023-03-06T22:12:23.406Z,22.77
2023-03-06T22:17:25.656Z,22.80
2023-03-06T22:22:27.769Z,25.03
2023-03-06T22:27:30.249Z,27.90
2023-03-06T22:32:32.281Z,24.83
2023-03-06T22:37:34.560Z,29.60
2023-03-06T22:42:36.734Z,29.73
2023-03-06T22:47:39.339Z,25.20
2023-03-06T22:52:41.284Z,26.70
2023-03-06T22:57:46.721Z,25.98
2023-03-06T23:02:51.537Z,25.10
2023-03-06T23:07:53.238Z,29.40
2023-03-06T23:12:54.997Z,24.73
2023-03-06T23:17:56.839Z,26.17
2023-03-06T23:22:58.871Z,25.57
2023-03-06T23:28:00.634Z,25.77
2023-03-06T23:33:02.337Z,24.03
2023-03-06T23:38:04.381Z,26.77
2023-03-06T23:43:06.074Z,26.73
2023-03-06T23:48:08.040Z,28.13
2023-03-06T23:53:09.716Z,28.57
2023-03-06T23:58:12.771Z,29.80
